<?xml version="1.0" encoding="UTF-8" standalone="no" ?>
<gpx xmlns="http://www.topografix.com/GPX/1/1" xmlns:xsi="http://www.w3.org/2001/XMLSchema-instance" xsi:schemaLocation="http://www.topografix.com/GPX/1/1 http://www.topografix.com/GPX/1/1/gpx.xsd" version="1.1" creator="VisuGPX - https://www.visugpx.com">
  <metadata>
    <name>R 011 St Jean d'Orbestier</name>
  </metadata>
  <trk>
    <name><![CDATA[20180622102621-VRAU3]]></name>
    <extensions>
      <line xmlns="http://www.topografix.com/GPX/gpx_style/0/2">
        <color>0000FF</color>
        <width>4</width>
      </line>
    </extensions>
    <trkseg>
      <trkpt lat="46.45956" lon="-1.71551">
        <ele>14.3</ele>
        <time>2018-06-19T12:32:26Z</time>
      </trkpt>
      <trkpt lat="46.45964" lon="-1.71559">
        <ele>14.7</ele>
        <time>2018-06-19T12:32:37Z</time>
      </trkpt>
      <trkpt lat="46.45968" lon="-1.71571">
        <ele>14.9</ele>
        <time>2018-06-19T12:32:46Z</time>
      </trkpt>
      <trkpt lat="46.45971" lon="-1.71585">
        <ele>15</ele>
        <time>2018-06-19T12:32:58Z</time>
      </trkpt>
      <trkpt lat="46.4598" lon="-1.71592">
        <ele>15.3</ele>
        <time>2018-06-19T12:33:05Z</time>
      </trkpt>
      <trkpt lat="46.45984" lon="-1.71605">
        <ele>15.4</ele>
        <time>2018-06-19T12:33:18Z</time>
      </trkpt>
      <trkpt lat="46.45989" lon="-1.71616">
        <ele>15.7</ele>
        <time>2018-06-19T12:33:25Z</time>
      </trkpt>
      <trkpt lat="46.45995" lon="-1.71628">
        <ele>15.9</ele>
        <time>2018-06-19T12:33:33Z</time>
      </trkpt>
      <trkpt lat="46.46001" lon="-1.71638">
        <ele>16</ele>
        <time>2018-06-19T12:33:41Z</time>
      </trkpt>
      <trkpt lat="46.46008" lon="-1.71647">
        <ele>16.6</ele>
        <time>2018-06-19T12:33:49Z</time>
      </trkpt>
      <trkpt lat="46.46013" lon="-1.71658">
        <ele>17.1</ele>
        <time>2018-06-19T12:33:58Z</time>
      </trkpt>
      <trkpt lat="46.46021" lon="-1.71664">
        <ele>17.7</ele>
        <time>2018-06-19T12:34:09Z</time>
      </trkpt>
      <trkpt lat="46.46029" lon="-1.71673">
        <ele>18</ele>
        <time>2018-06-19T12:34:19Z</time>
      </trkpt>
      <trkpt lat="46.46036" lon="-1.71682">
        <ele>18.2</ele>
        <time>2018-06-19T12:34:28Z</time>
      </trkpt>
      <trkpt lat="46.46042" lon="-1.71692">
        <ele>18.5</ele>
        <time>2018-06-19T12:34:39Z</time>
      </trkpt>
      <trkpt lat="46.4605" lon="-1.717">
        <ele>18.8</ele>
        <time>2018-06-19T12:34:47Z</time>
      </trkpt>
      <trkpt lat="46.46056" lon="-1.7171">
        <ele>19</ele>
        <time>2018-06-19T12:34:59Z</time>
      </trkpt>
      <trkpt lat="46.46062" lon="-1.7172">
        <ele>19.2</ele>
        <time>2018-06-19T12:35:08Z</time>
      </trkpt>
      <trkpt lat="46.46069" lon="-1.71728">
        <ele>19.5</ele>
        <time>2018-06-19T12:35:15Z</time>
      </trkpt>
      <trkpt lat="46.46071" lon="-1.71742">
        <ele>19.5</ele>
        <time>2018-06-19T12:35:22Z</time>
      </trkpt>
      <trkpt lat="46.46077" lon="-1.71752">
        <ele>19.8</ele>
        <time>2018-06-19T12:35:31Z</time>
      </trkpt>
      <trkpt lat="46.46083" lon="-1.71763">
        <ele>20</ele>
        <time>2018-06-19T12:35:43Z</time>
      </trkpt>
      <trkpt lat="46.4609" lon="-1.71773">
        <ele>20.2</ele>
        <time>2018-06-19T12:35:53Z</time>
      </trkpt>
      <trkpt lat="46.46098" lon="-1.71781">
        <ele>20.5</ele>
        <time>2018-06-19T12:36:02Z</time>
      </trkpt>
      <trkpt lat="46.46104" lon="-1.71792">
        <ele>20.3</ele>
        <time>2018-06-19T12:36:11Z</time>
      </trkpt>
      <trkpt lat="46.46112" lon="-1.71798">
        <ele>20.3</ele>
        <time>2018-06-19T12:36:19Z</time>
      </trkpt>
      <trkpt lat="46.46121" lon="-1.71804">
        <ele>20.4</ele>
        <time>2018-06-19T12:36:29Z</time>
      </trkpt>
      <trkpt lat="46.46129" lon="-1.71812">
        <ele>20.7</ele>
        <time>2018-06-19T12:36:37Z</time>
      </trkpt>
      <trkpt lat="46.46137" lon="-1.71818">
        <ele>21</ele>
        <time>2018-06-19T12:36:46Z</time>
      </trkpt>
      <trkpt lat="46.46146" lon="-1.71821">
        <ele>21.2</ele>
        <time>2018-06-19T12:36:55Z</time>
      </trkpt>
      <trkpt lat="46.46154" lon="-1.71828">
        <ele>21.5</ele>
        <time>2018-06-19T12:37:05Z</time>
      </trkpt>
      <trkpt lat="46.46162" lon="-1.71837">
        <ele>21.7</ele>
        <time>2018-06-19T12:37:14Z</time>
      </trkpt>
      <trkpt lat="46.46168" lon="-1.71846">
        <ele>21.6</ele>
        <time>2018-06-19T12:37:21Z</time>
      </trkpt>
      <trkpt lat="46.46178" lon="-1.7185">
        <ele>21.7</ele>
        <time>2018-06-19T12:37:34Z</time>
      </trkpt>
      <trkpt lat="46.46185" lon="-1.71859">
        <ele>21.7</ele>
        <time>2018-06-19T12:37:42Z</time>
      </trkpt>
      <trkpt lat="46.46193" lon="-1.71868">
        <ele>22</ele>
        <time>2018-06-19T12:37:50Z</time>
      </trkpt>
      <trkpt lat="46.46201" lon="-1.71876">
        <ele>22</ele>
        <time>2018-06-19T12:37:57Z</time>
      </trkpt>
      <trkpt lat="46.46208" lon="-1.71884">
        <ele>22</ele>
        <time>2018-06-19T12:38:04Z</time>
      </trkpt>
      <trkpt lat="46.46215" lon="-1.71892">
        <ele>22</ele>
        <time>2018-06-19T12:38:13Z</time>
      </trkpt>
      <trkpt lat="46.46223" lon="-1.71903">
        <ele>22</ele>
        <time>2018-06-19T12:38:24Z</time>
      </trkpt>
      <trkpt lat="46.4623" lon="-1.71912">
        <ele>21.7</ele>
        <time>2018-06-19T12:38:33Z</time>
      </trkpt>
      <trkpt lat="46.46236" lon="-1.71923">
        <ele>21.6</ele>
        <time>2018-06-19T12:38:43Z</time>
      </trkpt>
      <trkpt lat="46.46241" lon="-1.71937">
        <ele>21.8</ele>
        <time>2018-06-19T12:38:52Z</time>
      </trkpt>
      <trkpt lat="46.46246" lon="-1.71949">
        <ele>22</ele>
        <time>2018-06-19T12:38:59Z</time>
      </trkpt>
      <trkpt lat="46.46252" lon="-1.71959">
        <ele>21.9</ele>
        <time>2018-06-19T12:39:09Z</time>
      </trkpt>
      <trkpt lat="46.46257" lon="-1.7197">
        <ele>21.7</ele>
        <time>2018-06-19T12:39:18Z</time>
      </trkpt>
      <trkpt lat="46.46262" lon="-1.71983">
        <ele>21.6</ele>
        <time>2018-06-19T12:39:28Z</time>
      </trkpt>
      <trkpt lat="46.46268" lon="-1.71994">
        <ele>21.4</ele>
        <time>2018-06-19T12:39:37Z</time>
      </trkpt>
      <trkpt lat="46.46272" lon="-1.72006">
        <ele>21.4</ele>
        <time>2018-06-19T12:39:46Z</time>
      </trkpt>
      <trkpt lat="46.46278" lon="-1.7202">
        <ele>21.7</ele>
        <time>2018-06-19T12:39:59Z</time>
      </trkpt>
      <trkpt lat="46.46285" lon="-1.7203">
        <ele>21.8</ele>
        <time>2018-06-19T12:40:06Z</time>
      </trkpt>
      <trkpt lat="46.46287" lon="-1.72043">
        <ele>21.8</ele>
        <time>2018-06-19T12:40:15Z</time>
      </trkpt>
      <trkpt lat="46.46293" lon="-1.72055">
        <ele>22</ele>
        <time>2018-06-19T12:40:24Z</time>
      </trkpt>
      <trkpt lat="46.46299" lon="-1.72065">
        <ele>22.1</ele>
        <time>2018-06-19T12:40:31Z</time>
      </trkpt>
      <trkpt lat="46.46301" lon="-1.72079">
        <ele>22.1</ele>
        <time>2018-06-19T12:40:40Z</time>
      </trkpt>
      <trkpt lat="46.46303" lon="-1.72093">
        <ele>22.1</ele>
        <time>2018-06-19T12:40:48Z</time>
      </trkpt>
      <trkpt lat="46.46309" lon="-1.72105">
        <ele>22</ele>
        <time>2018-06-19T12:41:00Z</time>
      </trkpt>
      <trkpt lat="46.4631" lon="-1.7212">
        <ele>22</ele>
        <time>2018-06-19T12:41:10Z</time>
      </trkpt>
      <trkpt lat="46.46311" lon="-1.72133">
        <ele>22.2</ele>
        <time>2018-06-19T12:41:19Z</time>
      </trkpt>
      <trkpt lat="46.46314" lon="-1.72147">
        <ele>22.4</ele>
        <time>2018-06-19T12:41:27Z</time>
      </trkpt>
      <trkpt lat="46.46316" lon="-1.7216">
        <ele>22.6</ele>
        <time>2018-06-19T12:41:37Z</time>
      </trkpt>
      <trkpt lat="46.4632" lon="-1.72173">
        <ele>22.6</ele>
        <time>2018-06-19T12:41:45Z</time>
      </trkpt>
      <trkpt lat="46.46324" lon="-1.72184">
        <ele>22.8</ele>
        <time>2018-06-19T12:41:54Z</time>
      </trkpt>
      <trkpt lat="46.46326" lon="-1.72198">
        <ele>23</ele>
        <time>2018-06-19T12:42:03Z</time>
      </trkpt>
      <trkpt lat="46.46328" lon="-1.72211">
        <ele>23.1</ele>
        <time>2018-06-19T12:42:12Z</time>
      </trkpt>
      <trkpt lat="46.46331" lon="-1.72225">
        <ele>23.1</ele>
        <time>2018-06-19T12:42:20Z</time>
      </trkpt>
      <trkpt lat="46.46335" lon="-1.72237">
        <ele>23</ele>
        <time>2018-06-19T12:42:28Z</time>
      </trkpt>
      <trkpt lat="46.46336" lon="-1.72251">
        <ele>23</ele>
        <time>2018-06-19T12:42:36Z</time>
      </trkpt>
      <trkpt lat="46.46339" lon="-1.72263">
        <ele>23</ele>
        <time>2018-06-19T12:42:44Z</time>
      </trkpt>
      <trkpt lat="46.46341" lon="-1.72276">
        <ele>23</ele>
        <time>2018-06-19T12:42:53Z</time>
      </trkpt>
      <trkpt lat="46.46344" lon="-1.72289">
        <ele>23</ele>
        <time>2018-06-19T12:43:02Z</time>
      </trkpt>
      <trkpt lat="46.46347" lon="-1.72303">
        <ele>23</ele>
        <time>2018-06-19T12:43:11Z</time>
      </trkpt>
      <trkpt lat="46.46349" lon="-1.72318">
        <ele>23.2</ele>
        <time>2018-06-19T12:43:22Z</time>
      </trkpt>
      <trkpt lat="46.46351" lon="-1.72331">
        <ele>23.3</ele>
        <time>2018-06-19T12:43:30Z</time>
      </trkpt>
      <trkpt lat="46.46356" lon="-1.72341">
        <ele>23.2</ele>
        <time>2018-06-19T12:43:40Z</time>
      </trkpt>
      <trkpt lat="46.46366" lon="-1.72343">
        <ele>23.2</ele>
        <time>2018-06-19T12:43:55Z</time>
      </trkpt>
      <trkpt lat="46.46375" lon="-1.72339">
        <ele>23.5</ele>
        <time>2018-06-19T12:44:05Z</time>
      </trkpt>
      <trkpt lat="46.46378" lon="-1.72327">
        <ele>23.6</ele>
        <time>2018-06-19T12:44:13Z</time>
      </trkpt>
      <trkpt lat="46.46387" lon="-1.72322">
        <ele>23.9</ele>
        <time>2018-06-19T12:44:25Z</time>
      </trkpt>
      <trkpt lat="46.46396" lon="-1.72318">
        <ele>24</ele>
        <time>2018-06-19T12:44:33Z</time>
      </trkpt>
      <trkpt lat="46.46404" lon="-1.72313">
        <ele>24</ele>
        <time>2018-06-19T12:44:45Z</time>
      </trkpt>
      <trkpt lat="46.46409" lon="-1.723">
        <ele>23.9</ele>
        <time>2018-06-19T12:44:56Z</time>
      </trkpt>
      <trkpt lat="46.46414" lon="-1.7229">
        <ele>23.9</ele>
        <time>2018-06-19T12:45:06Z</time>
      </trkpt>
      <trkpt lat="46.46423" lon="-1.72282">
        <ele>24</ele>
        <time>2018-06-19T12:45:15Z</time>
      </trkpt>
      <trkpt lat="46.46431" lon="-1.72275">
        <ele>24</ele>
        <time>2018-06-19T12:45:25Z</time>
      </trkpt>
      <trkpt lat="46.4644" lon="-1.72269">
        <ele>24</ele>
        <time>2018-06-19T12:45:36Z</time>
      </trkpt>
      <trkpt lat="46.46449" lon="-1.72263">
        <ele>24.2</ele>
        <time>2018-06-19T12:45:45Z</time>
      </trkpt>
      <trkpt lat="46.46458" lon="-1.72258">
        <ele>24.5</ele>
        <time>2018-06-19T12:45:54Z</time>
      </trkpt>
      <trkpt lat="46.46466" lon="-1.72252">
        <ele>24.8</ele>
        <time>2018-06-19T12:46:04Z</time>
      </trkpt>
      <trkpt lat="46.46475" lon="-1.72248">
        <ele>25</ele>
        <time>2018-06-19T12:46:12Z</time>
      </trkpt>
      <trkpt lat="46.46484" lon="-1.72243">
        <ele>25</ele>
        <time>2018-06-19T12:46:20Z</time>
      </trkpt>
      <trkpt lat="46.46492" lon="-1.72236">
        <ele>25</ele>
        <time>2018-06-19T12:46:30Z</time>
      </trkpt>
      <trkpt lat="46.46501" lon="-1.72232">
        <ele>25</ele>
        <time>2018-06-19T12:46:39Z</time>
      </trkpt>
      <trkpt lat="46.4651" lon="-1.72224">
        <ele>25</ele>
        <time>2018-06-19T12:46:50Z</time>
      </trkpt>
      <trkpt lat="46.46519" lon="-1.7222">
        <ele>25</ele>
        <time>2018-06-19T12:46:59Z</time>
      </trkpt>
      <trkpt lat="46.46528" lon="-1.72215">
        <ele>25</ele>
        <time>2018-06-19T12:47:08Z</time>
      </trkpt>
      <trkpt lat="46.46537" lon="-1.72215">
        <ele>25</ele>
        <time>2018-06-19T12:47:17Z</time>
      </trkpt>
      <trkpt lat="46.46547" lon="-1.72216">
        <ele>25</ele>
        <time>2018-06-19T12:47:26Z</time>
      </trkpt>
      <trkpt lat="46.46556" lon="-1.72218">
        <ele>25</ele>
        <time>2018-06-19T12:47:36Z</time>
      </trkpt>
      <trkpt lat="46.46565" lon="-1.72217">
        <ele>25</ele>
        <time>2018-06-19T12:47:45Z</time>
      </trkpt>
      <trkpt lat="46.46574" lon="-1.72218">
        <ele>25</ele>
        <time>2018-06-19T12:47:56Z</time>
      </trkpt>
      <trkpt lat="46.46584" lon="-1.7222">
        <ele>25</ele>
        <time>2018-06-19T12:48:06Z</time>
      </trkpt>
      <trkpt lat="46.46595" lon="-1.72221">
        <ele>25.4</ele>
        <time>2018-06-19T12:48:17Z</time>
      </trkpt>
      <trkpt lat="46.46604" lon="-1.72222">
        <ele>25.7</ele>
        <time>2018-06-19T12:48:25Z</time>
      </trkpt>
      <trkpt lat="46.46613" lon="-1.72218">
        <ele>25.9</ele>
        <time>2018-06-19T12:48:35Z</time>
      </trkpt>
      <trkpt lat="46.46622" lon="-1.72214">
        <ele>25.8</ele>
        <time>2018-06-19T12:48:45Z</time>
      </trkpt>
      <trkpt lat="46.4663" lon="-1.72207">
        <ele>25.8</ele>
        <time>2018-06-19T12:48:55Z</time>
      </trkpt>
      <trkpt lat="46.4664" lon="-1.72201">
        <ele>26</ele>
        <time>2018-06-19T12:49:04Z</time>
      </trkpt>
      <trkpt lat="46.46648" lon="-1.72193">
        <ele>26</ele>
        <time>2018-06-19T12:49:15Z</time>
      </trkpt>
      <trkpt lat="46.46655" lon="-1.72185">
        <ele>25.9</ele>
        <time>2018-06-19T12:49:24Z</time>
      </trkpt>
      <trkpt lat="46.46664" lon="-1.72177">
        <ele>25.9</ele>
        <time>2018-06-19T12:49:34Z</time>
      </trkpt>
      <trkpt lat="46.4667" lon="-1.72166">
        <ele>26</ele>
        <time>2018-06-19T12:49:43Z</time>
      </trkpt>
      <trkpt lat="46.46674" lon="-1.72154">
        <ele>26</ele>
        <time>2018-06-19T12:50:00Z</time>
      </trkpt>
      <trkpt lat="46.46681" lon="-1.72145">
        <ele>26</ele>
        <time>2018-06-19T12:50:19Z</time>
      </trkpt>
      <trkpt lat="46.46674" lon="-1.72153">
        <ele>26</ele>
        <time>2018-06-19T12:50:30Z</time>
      </trkpt>
      <trkpt lat="46.46667" lon="-1.72162">
        <ele>26</ele>
        <time>2018-06-19T12:51:01Z</time>
      </trkpt>
      <trkpt lat="46.46669" lon="-1.72167">
        <ele>26</ele>
        <time>2018-06-19T12:51:16Z</time>
      </trkpt>
      <trkpt lat="46.46674" lon="-1.72155">
        <ele>26</ele>
        <time>2018-06-19T12:51:41Z</time>
      </trkpt>
      <trkpt lat="46.46676" lon="-1.72152">
        <ele>26</ele>
        <time>2018-06-19T12:51:59Z</time>
      </trkpt>
      <trkpt lat="46.46681" lon="-1.72147">
        <ele>26</ele>
        <time>2018-06-19T12:54:56Z</time>
      </trkpt>
      <trkpt lat="46.46687" lon="-1.72137">
        <ele>26</ele>
        <time>2018-06-19T12:55:07Z</time>
      </trkpt>
      <trkpt lat="46.46694" lon="-1.72129">
        <ele>26</ele>
        <time>2018-06-19T12:55:17Z</time>
      </trkpt>
      <trkpt lat="46.467" lon="-1.72119">
        <ele>26</ele>
        <time>2018-06-19T12:55:29Z</time>
      </trkpt>
      <trkpt lat="46.46707" lon="-1.72128">
        <ele>26</ele>
        <time>2018-06-19T12:55:44Z</time>
      </trkpt>
      <trkpt lat="46.46712" lon="-1.7214">
        <ele>26</ele>
        <time>2018-06-19T12:55:57Z</time>
      </trkpt>
      <trkpt lat="46.46719" lon="-1.7215">
        <ele>26</ele>
        <time>2018-06-19T12:56:05Z</time>
      </trkpt>
      <trkpt lat="46.46726" lon="-1.7216">
        <ele>26</ele>
        <time>2018-06-19T12:56:16Z</time>
      </trkpt>
      <trkpt lat="46.46729" lon="-1.72173">
        <ele>26</ele>
        <time>2018-06-19T12:56:25Z</time>
      </trkpt>
      <trkpt lat="46.4673" lon="-1.72186">
        <ele>26.2</ele>
        <time>2018-06-19T12:56:36Z</time>
      </trkpt>
      <trkpt lat="46.46732" lon="-1.722">
        <ele>26.3</ele>
        <time>2018-06-19T12:56:44Z</time>
      </trkpt>
      <trkpt lat="46.46733" lon="-1.72213">
        <ele>26.4</ele>
        <time>2018-06-19T12:56:57Z</time>
      </trkpt>
      <trkpt lat="46.46734" lon="-1.72227">
        <ele>26.4</ele>
        <time>2018-06-19T12:57:06Z</time>
      </trkpt>
      <trkpt lat="46.46737" lon="-1.7224">
        <ele>26.5</ele>
        <time>2018-06-19T12:57:15Z</time>
      </trkpt>
      <trkpt lat="46.46739" lon="-1.72254">
        <ele>26.5</ele>
        <time>2018-06-19T12:57:23Z</time>
      </trkpt>
      <trkpt lat="46.46743" lon="-1.72266">
        <ele>26.3</ele>
        <time>2018-06-19T12:57:31Z</time>
      </trkpt>
      <trkpt lat="46.46748" lon="-1.72278">
        <ele>26</ele>
        <time>2018-06-19T12:57:42Z</time>
      </trkpt>
      <trkpt lat="46.46752" lon="-1.7229">
        <ele>26.4</ele>
        <time>2018-06-19T12:57:51Z</time>
      </trkpt>
      <trkpt lat="46.46759" lon="-1.72298">
        <ele>26.5</ele>
        <time>2018-06-19T12:57:58Z</time>
      </trkpt>
      <trkpt lat="46.46765" lon="-1.72309">
        <ele>26.5</ele>
        <time>2018-06-19T12:58:08Z</time>
      </trkpt>
      <trkpt lat="46.46767" lon="-1.72321">
        <ele>26.4</ele>
        <time>2018-06-19T12:58:17Z</time>
      </trkpt>
      <trkpt lat="46.46774" lon="-1.72332">
        <ele>26.1</ele>
        <time>2018-06-19T12:58:26Z</time>
      </trkpt>
      <trkpt lat="46.46779" lon="-1.72343">
        <ele>26</ele>
        <time>2018-06-19T12:58:37Z</time>
      </trkpt>
      <trkpt lat="46.46785" lon="-1.72355">
        <ele>26</ele>
        <time>2018-06-19T12:58:48Z</time>
      </trkpt>
      <trkpt lat="46.4679" lon="-1.72367">
        <ele>26</ele>
        <time>2018-06-19T12:58:55Z</time>
      </trkpt>
      <trkpt lat="46.46793" lon="-1.7238">
        <ele>26</ele>
        <time>2018-06-19T12:59:03Z</time>
      </trkpt>
      <trkpt lat="46.468" lon="-1.72393">
        <ele>26</ele>
        <time>2018-06-19T12:59:13Z</time>
      </trkpt>
      <trkpt lat="46.46805" lon="-1.72405">
        <ele>26</ele>
        <time>2018-06-19T12:59:22Z</time>
      </trkpt>
      <trkpt lat="46.4681" lon="-1.72417">
        <ele>26</ele>
        <time>2018-06-19T12:59:33Z</time>
      </trkpt>
      <trkpt lat="46.46816" lon="-1.72429">
        <ele>26</ele>
        <time>2018-06-19T12:59:43Z</time>
      </trkpt>
      <trkpt lat="46.46819" lon="-1.72441">
        <ele>26</ele>
        <time>2018-06-19T12:59:51Z</time>
      </trkpt>
      <trkpt lat="46.46822" lon="-1.72454">
        <ele>26</ele>
        <time>2018-06-19T13:00:02Z</time>
      </trkpt>
      <trkpt lat="46.46824" lon="-1.72467">
        <ele>26</ele>
        <time>2018-06-19T13:00:09Z</time>
      </trkpt>
      <trkpt lat="46.46828" lon="-1.7248">
        <ele>26</ele>
        <time>2018-06-19T13:00:23Z</time>
      </trkpt>
      <trkpt lat="46.46831" lon="-1.72492">
        <ele>26</ele>
        <time>2018-06-19T13:00:32Z</time>
      </trkpt>
      <trkpt lat="46.46836" lon="-1.72504">
        <ele>25.9</ele>
        <time>2018-06-19T13:00:39Z</time>
      </trkpt>
      <trkpt lat="46.4684" lon="-1.72516">
        <ele>25.6</ele>
        <time>2018-06-19T13:00:48Z</time>
      </trkpt>
      <trkpt lat="46.46845" lon="-1.72527">
        <ele>25.4</ele>
        <time>2018-06-19T13:01:00Z</time>
      </trkpt>
      <trkpt lat="46.46848" lon="-1.7254">
        <ele>25.3</ele>
        <time>2018-06-19T13:01:06Z</time>
      </trkpt>
      <trkpt lat="46.46854" lon="-1.72552">
        <ele>25.1</ele>
        <time>2018-06-19T13:01:15Z</time>
      </trkpt>
      <trkpt lat="46.46858" lon="-1.72565">
        <ele>25</ele>
        <time>2018-06-19T13:01:26Z</time>
      </trkpt>
      <trkpt lat="46.46861" lon="-1.72578">
        <ele>25</ele>
        <time>2018-06-19T13:01:34Z</time>
      </trkpt>
      <trkpt lat="46.46864" lon="-1.72592">
        <ele>25</ele>
        <time>2018-06-19T13:01:42Z</time>
      </trkpt>
      <trkpt lat="46.46867" lon="-1.72604">
        <ele>25</ele>
        <time>2018-06-19T13:01:51Z</time>
      </trkpt>
      <trkpt lat="46.46874" lon="-1.72615">
        <ele>25</ele>
        <time>2018-06-19T13:01:59Z</time>
      </trkpt>
      <trkpt lat="46.46877" lon="-1.72628">
        <ele>25</ele>
        <time>2018-06-19T13:02:10Z</time>
      </trkpt>
      <trkpt lat="46.46882" lon="-1.7264">
        <ele>25</ele>
        <time>2018-06-19T13:02:20Z</time>
      </trkpt>
      <trkpt lat="46.46886" lon="-1.72651">
        <ele>24.6</ele>
        <time>2018-06-19T13:02:27Z</time>
      </trkpt>
      <trkpt lat="46.46888" lon="-1.72665">
        <ele>24.1</ele>
        <time>2018-06-19T13:02:40Z</time>
      </trkpt>
      <trkpt lat="46.46891" lon="-1.72677">
        <ele>24</ele>
        <time>2018-06-19T13:02:57Z</time>
      </trkpt>
      <trkpt lat="46.46892" lon="-1.72693">
        <ele>23.9</ele>
        <time>2018-06-19T13:03:07Z</time>
      </trkpt>
      <trkpt lat="46.46896" lon="-1.72708">
        <ele>23.7</ele>
        <time>2018-06-19T13:03:17Z</time>
      </trkpt>
      <trkpt lat="46.46902" lon="-1.7272">
        <ele>23.5</ele>
        <time>2018-06-19T13:03:25Z</time>
      </trkpt>
      <trkpt lat="46.46907" lon="-1.72732">
        <ele>23.4</ele>
        <time>2018-06-19T13:03:32Z</time>
      </trkpt>
      <trkpt lat="46.46911" lon="-1.72746">
        <ele>23.2</ele>
        <time>2018-06-19T13:03:45Z</time>
      </trkpt>
      <trkpt lat="46.46917" lon="-1.72757">
        <ele>23.2</ele>
        <time>2018-06-19T13:03:52Z</time>
      </trkpt>
      <trkpt lat="46.46923" lon="-1.72768">
        <ele>23.5</ele>
        <time>2018-06-19T13:04:01Z</time>
      </trkpt>
      <trkpt lat="46.46927" lon="-1.72781">
        <ele>23.6</ele>
        <time>2018-06-19T13:04:11Z</time>
      </trkpt>
      <trkpt lat="46.46923" lon="-1.72794">
        <ele>23.3</ele>
        <time>2018-06-19T13:04:22Z</time>
      </trkpt>
      <trkpt lat="46.46922" lon="-1.72807">
        <ele>23</ele>
        <time>2018-06-19T13:04:30Z</time>
      </trkpt>
      <trkpt lat="46.46919" lon="-1.72821">
        <ele>22.9</ele>
        <time>2018-06-19T13:04:38Z</time>
      </trkpt>
      <trkpt lat="46.46922" lon="-1.72834">
        <ele>22.8</ele>
        <time>2018-06-19T13:04:46Z</time>
      </trkpt>
      <trkpt lat="46.46927" lon="-1.72845">
        <ele>22.6</ele>
        <time>2018-06-19T13:04:54Z</time>
      </trkpt>
      <trkpt lat="46.46934" lon="-1.72856">
        <ele>22.4</ele>
        <time>2018-06-19T13:05:04Z</time>
      </trkpt>
      <trkpt lat="46.46939" lon="-1.72867">
        <ele>22.2</ele>
        <time>2018-06-19T13:05:12Z</time>
      </trkpt>
      <trkpt lat="46.46944" lon="-1.7288">
        <ele>22</ele>
        <time>2018-06-19T13:05:23Z</time>
      </trkpt>
      <trkpt lat="46.46949" lon="-1.72893">
        <ele>21.7</ele>
        <time>2018-06-19T13:05:30Z</time>
      </trkpt>
      <trkpt lat="46.46953" lon="-1.72905">
        <ele>21.3</ele>
        <time>2018-06-19T13:05:40Z</time>
      </trkpt>
      <trkpt lat="46.4696" lon="-1.72915">
        <ele>21</ele>
        <time>2018-06-19T13:06:03Z</time>
      </trkpt>
      <trkpt lat="46.4697" lon="-1.7292">
        <ele>21</ele>
        <time>2018-06-19T13:06:12Z</time>
      </trkpt>
      <trkpt lat="46.46977" lon="-1.72929">
        <ele>20.8</ele>
        <time>2018-06-19T13:06:22Z</time>
      </trkpt>
      <trkpt lat="46.46983" lon="-1.72939">
        <ele>20.3</ele>
        <time>2018-06-19T13:06:31Z</time>
      </trkpt>
      <trkpt lat="46.46992" lon="-1.72943">
        <ele>19.6</ele>
        <time>2018-06-19T13:06:37Z</time>
      </trkpt>
      <trkpt lat="46.46998" lon="-1.72953">
        <ele>19.4</ele>
        <time>2018-06-19T13:06:48Z</time>
      </trkpt>
      <trkpt lat="46.47007" lon="-1.72959">
        <ele>19.3</ele>
        <time>2018-06-19T13:06:54Z</time>
      </trkpt>
      <trkpt lat="46.47014" lon="-1.7297">
        <ele>19</ele>
        <time>2018-06-19T13:07:04Z</time>
      </trkpt>
      <trkpt lat="46.47022" lon="-1.72977">
        <ele>18.4</ele>
        <time>2018-06-19T13:07:13Z</time>
      </trkpt>
      <trkpt lat="46.47035" lon="-1.72978">
        <ele>18.3</ele>
        <time>2018-06-19T13:07:28Z</time>
      </trkpt>
      <trkpt lat="46.47044" lon="-1.72978">
        <ele>18.6</ele>
        <time>2018-06-19T13:07:37Z</time>
      </trkpt>
      <trkpt lat="46.47054" lon="-1.72974">
        <ele>18.9</ele>
        <time>2018-06-19T13:07:46Z</time>
      </trkpt>
      <trkpt lat="46.47063" lon="-1.72969">
        <ele>19.4</ele>
        <time>2018-06-19T13:07:55Z</time>
      </trkpt>
      <trkpt lat="46.4707" lon="-1.72962">
        <ele>19.7</ele>
        <time>2018-06-19T13:08:06Z</time>
      </trkpt>
      <trkpt lat="46.4708" lon="-1.72957">
        <ele>19.9</ele>
        <time>2018-06-19T13:08:14Z</time>
      </trkpt>
      <trkpt lat="46.47087" lon="-1.72946">
        <ele>20.1</ele>
        <time>2018-06-19T13:08:23Z</time>
      </trkpt>
      <trkpt lat="46.47096" lon="-1.72939">
        <ele>20.6</ele>
        <time>2018-06-19T13:08:33Z</time>
      </trkpt>
      <trkpt lat="46.47104" lon="-1.72933">
        <ele>20.9</ele>
        <time>2018-06-19T13:08:45Z</time>
      </trkpt>
      <trkpt lat="46.47113" lon="-1.72925">
        <ele>21</ele>
        <time>2018-06-19T13:08:53Z</time>
      </trkpt>
      <trkpt lat="46.47121" lon="-1.72919">
        <ele>21.3</ele>
        <time>2018-06-19T13:09:01Z</time>
      </trkpt>
      <trkpt lat="46.47129" lon="-1.72911">
        <ele>21.6</ele>
        <time>2018-06-19T13:09:12Z</time>
      </trkpt>
      <trkpt lat="46.47136" lon="-1.72902">
        <ele>21.9</ele>
        <time>2018-06-19T13:09:23Z</time>
      </trkpt>
      <trkpt lat="46.47145" lon="-1.72894">
        <ele>22.2</ele>
        <time>2018-06-19T13:09:32Z</time>
      </trkpt>
      <trkpt lat="46.47154" lon="-1.72888">
        <ele>22.5</ele>
        <time>2018-06-19T13:09:42Z</time>
      </trkpt>
      <trkpt lat="46.47163" lon="-1.72883">
        <ele>22.9</ele>
        <time>2018-06-19T13:09:52Z</time>
      </trkpt>
      <trkpt lat="46.47172" lon="-1.72877">
        <ele>23.2</ele>
        <time>2018-06-19T13:10:00Z</time>
      </trkpt>
      <trkpt lat="46.47181" lon="-1.7287">
        <ele>23.5</ele>
        <time>2018-06-19T13:10:14Z</time>
      </trkpt>
      <trkpt lat="46.47189" lon="-1.72863">
        <ele>23.8</ele>
        <time>2018-06-19T13:10:26Z</time>
      </trkpt>
      <trkpt lat="46.47197" lon="-1.72868">
        <ele>24</ele>
        <time>2018-06-19T13:11:15Z</time>
      </trkpt>
      <trkpt lat="46.47203" lon="-1.72871">
        <ele>24.1</ele>
        <time>2018-06-19T13:12:57Z</time>
      </trkpt>
      <trkpt lat="46.47207" lon="-1.72886">
        <ele>24.4</ele>
        <time>2018-06-19T13:14:06Z</time>
      </trkpt>
      <trkpt lat="46.47208" lon="-1.72899">
        <ele>24.1</ele>
        <time>2018-06-19T13:14:17Z</time>
      </trkpt>
      <trkpt lat="46.4721" lon="-1.72914">
        <ele>23.7</ele>
        <time>2018-06-19T13:14:25Z</time>
      </trkpt>
      <trkpt lat="46.47215" lon="-1.72925">
        <ele>23.8</ele>
        <time>2018-06-19T13:14:35Z</time>
      </trkpt>
      <trkpt lat="46.47221" lon="-1.72935">
        <ele>23.9</ele>
        <time>2018-06-19T13:14:42Z</time>
      </trkpt>
      <trkpt lat="46.47231" lon="-1.72938">
        <ele>24.3</ele>
        <time>2018-06-19T13:14:50Z</time>
      </trkpt>
      <trkpt lat="46.47242" lon="-1.7294">
        <ele>24.7</ele>
        <time>2018-06-19T13:15:01Z</time>
      </trkpt>
      <trkpt lat="46.47251" lon="-1.72937">
        <ele>25</ele>
        <time>2018-06-19T13:15:15Z</time>
      </trkpt>
      <trkpt lat="46.4726" lon="-1.72936">
        <ele>25</ele>
        <time>2018-06-19T13:15:22Z</time>
      </trkpt>
      <trkpt lat="46.47269" lon="-1.72937">
        <ele>25</ele>
        <time>2018-06-19T13:15:29Z</time>
      </trkpt>
      <trkpt lat="46.47279" lon="-1.72937">
        <ele>25</ele>
        <time>2018-06-19T13:15:39Z</time>
      </trkpt>
      <trkpt lat="46.47289" lon="-1.72937">
        <ele>25.3</ele>
        <time>2018-06-19T13:15:48Z</time>
      </trkpt>
      <trkpt lat="46.473" lon="-1.72936">
        <ele>25.6</ele>
        <time>2018-06-19T13:15:58Z</time>
      </trkpt>
      <trkpt lat="46.4731" lon="-1.72939">
        <ele>25.8</ele>
        <time>2018-06-19T13:16:06Z</time>
      </trkpt>
      <trkpt lat="46.47319" lon="-1.72941">
        <ele>25.9</ele>
        <time>2018-06-19T13:16:17Z</time>
      </trkpt>
      <trkpt lat="46.47328" lon="-1.72943">
        <ele>26</ele>
        <time>2018-06-19T13:16:29Z</time>
      </trkpt>
      <trkpt lat="46.47337" lon="-1.72947">
        <ele>26</ele>
        <time>2018-06-19T13:16:37Z</time>
      </trkpt>
      <trkpt lat="46.47347" lon="-1.72953">
        <ele>26</ele>
        <time>2018-06-19T13:16:45Z</time>
      </trkpt>
      <trkpt lat="46.47355" lon="-1.72961">
        <ele>26</ele>
        <time>2018-06-19T13:16:54Z</time>
      </trkpt>
      <trkpt lat="46.47363" lon="-1.7297">
        <ele>26</ele>
        <time>2018-06-19T13:17:03Z</time>
      </trkpt>
      <trkpt lat="46.4737" lon="-1.72979">
        <ele>25.9</ele>
        <time>2018-06-19T13:17:13Z</time>
      </trkpt>
      <trkpt lat="46.47376" lon="-1.72988">
        <ele>25.7</ele>
        <time>2018-06-19T13:17:23Z</time>
      </trkpt>
      <trkpt lat="46.47381" lon="-1.73">
        <ele>25.3</ele>
        <time>2018-06-19T13:17:32Z</time>
      </trkpt>
      <trkpt lat="46.47388" lon="-1.73011">
        <ele>25.4</ele>
        <time>2018-06-19T13:17:43Z</time>
      </trkpt>
      <trkpt lat="46.47395" lon="-1.73019">
        <ele>25.6</ele>
        <time>2018-06-19T13:17:51Z</time>
      </trkpt>
      <trkpt lat="46.474" lon="-1.7303">
        <ele>25.5</ele>
        <time>2018-06-19T13:17:59Z</time>
      </trkpt>
      <trkpt lat="46.47405" lon="-1.73042">
        <ele>25.2</ele>
        <time>2018-06-19T13:18:07Z</time>
      </trkpt>
      <trkpt lat="46.47411" lon="-1.73053">
        <ele>25</ele>
        <time>2018-06-19T13:18:15Z</time>
      </trkpt>
      <trkpt lat="46.47415" lon="-1.73066">
        <ele>25</ele>
        <time>2018-06-19T13:18:25Z</time>
      </trkpt>
      <trkpt lat="46.47421" lon="-1.73078">
        <ele>24.9</ele>
        <time>2018-06-19T13:18:32Z</time>
      </trkpt>
      <trkpt lat="46.47414" lon="-1.73088">
        <ele>25</ele>
        <time>2018-06-19T13:18:48Z</time>
      </trkpt>
      <trkpt lat="46.47408" lon="-1.73098">
        <ele>25</ele>
        <time>2018-06-19T13:18:58Z</time>
      </trkpt>
      <trkpt lat="46.474" lon="-1.73105">
        <ele>25</ele>
        <time>2018-06-19T13:19:07Z</time>
      </trkpt>
      <trkpt lat="46.4739" lon="-1.7311">
        <ele>25</ele>
        <time>2018-06-19T13:19:13Z</time>
      </trkpt>
      <trkpt lat="46.47382" lon="-1.73116">
        <ele>24.9</ele>
        <time>2018-06-19T13:19:19Z</time>
      </trkpt>
      <trkpt lat="46.4738" lon="-1.73118">
        <ele>24.8</ele>
        <time>2018-06-19T13:19:32Z</time>
      </trkpt>
      <trkpt lat="46.4737" lon="-1.73121">
        <ele>24.9</ele>
        <time>2018-06-19T13:20:21Z</time>
      </trkpt>
      <trkpt lat="46.47361" lon="-1.73126">
        <ele>25</ele>
        <time>2018-06-19T13:20:28Z</time>
      </trkpt>
      <trkpt lat="46.47353" lon="-1.73133">
        <ele>25</ele>
        <time>2018-06-19T13:20:35Z</time>
      </trkpt>
      <trkpt lat="46.47345" lon="-1.7314">
        <ele>25</ele>
        <time>2018-06-19T13:20:42Z</time>
      </trkpt>
      <trkpt lat="46.47337" lon="-1.73148">
        <ele>25</ele>
        <time>2018-06-19T13:20:50Z</time>
      </trkpt>
      <trkpt lat="46.47328" lon="-1.73156">
        <ele>24.9</ele>
        <time>2018-06-19T13:21:00Z</time>
      </trkpt>
      <trkpt lat="46.47319" lon="-1.73161">
        <ele>24.6</ele>
        <time>2018-06-19T13:21:08Z</time>
      </trkpt>
      <trkpt lat="46.47311" lon="-1.73169">
        <ele>24.2</ele>
        <time>2018-06-19T13:21:16Z</time>
      </trkpt>
      <trkpt lat="46.47303" lon="-1.73178">
        <ele>24</ele>
        <time>2018-06-19T13:21:24Z</time>
      </trkpt>
      <trkpt lat="46.47294" lon="-1.73182">
        <ele>24</ele>
        <time>2018-06-19T13:21:34Z</time>
      </trkpt>
      <trkpt lat="46.47285" lon="-1.73183">
        <ele>24</ele>
        <time>2018-06-19T13:22:04Z</time>
      </trkpt>
      <trkpt lat="46.47278" lon="-1.73173">
        <ele>24</ele>
        <time>2018-06-19T13:22:13Z</time>
      </trkpt>
      <trkpt lat="46.47269" lon="-1.7317">
        <ele>24</ele>
        <time>2018-06-19T13:22:23Z</time>
      </trkpt>
      <trkpt lat="46.47259" lon="-1.73179">
        <ele>24</ele>
        <time>2018-06-19T13:22:34Z</time>
      </trkpt>
      <trkpt lat="46.47253" lon="-1.73189">
        <ele>24</ele>
        <time>2018-06-19T13:22:44Z</time>
      </trkpt>
      <trkpt lat="46.47247" lon="-1.732">
        <ele>23.7</ele>
        <time>2018-06-19T13:22:53Z</time>
      </trkpt>
      <trkpt lat="46.47245" lon="-1.73213">
        <ele>23.3</ele>
        <time>2018-06-19T13:23:01Z</time>
      </trkpt>
      <trkpt lat="46.47246" lon="-1.73226">
        <ele>23</ele>
        <time>2018-06-19T13:23:09Z</time>
      </trkpt>
      <trkpt lat="46.47244" lon="-1.73239">
        <ele>22.9</ele>
        <time>2018-06-19T13:23:17Z</time>
      </trkpt>
      <trkpt lat="46.47245" lon="-1.73252">
        <ele>22.8</ele>
        <time>2018-06-19T13:23:26Z</time>
      </trkpt>
      <trkpt lat="46.47245" lon="-1.73259">
        <ele>22.8</ele>
        <time>2018-06-19T13:23:46Z</time>
      </trkpt>
      <trkpt lat="46.47245" lon="-1.73274">
        <ele>22.8</ele>
        <time>2018-06-19T13:24:30Z</time>
      </trkpt>
      <trkpt lat="46.47246" lon="-1.73288">
        <ele>22.6</ele>
        <time>2018-06-19T13:24:39Z</time>
      </trkpt>
      <trkpt lat="46.47244" lon="-1.73301">
        <ele>22.1</ele>
        <time>2018-06-19T13:24:50Z</time>
      </trkpt>
      <trkpt lat="46.47247" lon="-1.73315">
        <ele>22</ele>
        <time>2018-06-19T13:24:58Z</time>
      </trkpt>
      <trkpt lat="46.47244" lon="-1.73331">
        <ele>21.8</ele>
        <time>2018-06-19T13:25:06Z</time>
      </trkpt>
      <trkpt lat="46.47243" lon="-1.73346">
        <ele>21.4</ele>
        <time>2018-06-19T13:25:15Z</time>
      </trkpt>
      <trkpt lat="46.47242" lon="-1.73361">
        <ele>21</ele>
        <time>2018-06-19T13:25:22Z</time>
      </trkpt>
      <trkpt lat="46.47244" lon="-1.73374">
        <ele>21</ele>
        <time>2018-06-19T13:25:29Z</time>
      </trkpt>
      <trkpt lat="46.47244" lon="-1.73387">
        <ele>21</ele>
        <time>2018-06-19T13:25:35Z</time>
      </trkpt>
      <trkpt lat="46.47246" lon="-1.73401">
        <ele>20.9</ele>
        <time>2018-06-19T13:25:46Z</time>
      </trkpt>
      <trkpt lat="46.47245" lon="-1.73415">
        <ele>20.8</ele>
        <time>2018-06-19T13:26:12Z</time>
      </trkpt>
      <trkpt lat="46.47247" lon="-1.73429">
        <ele>20.5</ele>
        <time>2018-06-19T13:26:20Z</time>
      </trkpt>
      <trkpt lat="46.47254" lon="-1.73437">
        <ele>20.4</ele>
        <time>2018-06-19T13:26:28Z</time>
      </trkpt>
      <trkpt lat="46.47264" lon="-1.73438">
        <ele>20.6</ele>
        <time>2018-06-19T13:26:43Z</time>
      </trkpt>
      <trkpt lat="46.47273" lon="-1.73434">
        <ele>20.9</ele>
        <time>2018-06-19T13:26:49Z</time>
      </trkpt>
      <trkpt lat="46.47283" lon="-1.73434">
        <ele>21.1</ele>
        <time>2018-06-19T13:26:59Z</time>
      </trkpt>
      <trkpt lat="46.47293" lon="-1.73433">
        <ele>21.2</ele>
        <time>2018-06-19T13:27:08Z</time>
      </trkpt>
      <trkpt lat="46.47302" lon="-1.73429">
        <ele>21.5</ele>
        <time>2018-06-19T13:27:15Z</time>
      </trkpt>
      <trkpt lat="46.47311" lon="-1.73426">
        <ele>21.7</ele>
        <time>2018-06-19T13:27:24Z</time>
      </trkpt>
      <trkpt lat="46.47321" lon="-1.73421">
        <ele>21.8</ele>
        <time>2018-06-19T13:27:33Z</time>
      </trkpt>
      <trkpt lat="46.4733" lon="-1.73416">
        <ele>22</ele>
        <time>2018-06-19T13:27:43Z</time>
      </trkpt>
      <trkpt lat="46.47338" lon="-1.7341">
        <ele>22</ele>
        <time>2018-06-19T13:27:55Z</time>
      </trkpt>
      <trkpt lat="46.47347" lon="-1.73407">
        <ele>22</ele>
        <time>2018-06-19T13:28:10Z</time>
      </trkpt>
      <trkpt lat="46.47355" lon="-1.734">
        <ele>22</ele>
        <time>2018-06-19T13:28:18Z</time>
      </trkpt>
      <trkpt lat="46.47362" lon="-1.73392">
        <ele>22</ele>
        <time>2018-06-19T13:28:28Z</time>
      </trkpt>
      <trkpt lat="46.4737" lon="-1.73384">
        <ele>21.7</ele>
        <time>2018-06-19T13:28:38Z</time>
      </trkpt>
      <trkpt lat="46.4738" lon="-1.73383">
        <ele>21.5</ele>
        <time>2018-06-19T13:28:48Z</time>
      </trkpt>
      <trkpt lat="46.47389" lon="-1.73387">
        <ele>21.1</ele>
        <time>2018-06-19T13:28:57Z</time>
      </trkpt>
      <trkpt lat="46.47398" lon="-1.73394">
        <ele>20.9</ele>
        <time>2018-06-19T13:29:05Z</time>
      </trkpt>
      <trkpt lat="46.47406" lon="-1.73399">
        <ele>20.8</ele>
        <time>2018-06-19T13:29:13Z</time>
      </trkpt>
      <trkpt lat="46.47414" lon="-1.73404">
        <ele>20.5</ele>
        <time>2018-06-19T13:29:21Z</time>
      </trkpt>
      <trkpt lat="46.47419" lon="-1.73416">
        <ele>20</ele>
        <time>2018-06-19T13:29:30Z</time>
      </trkpt>
      <trkpt lat="46.47417" lon="-1.73429">
        <ele>20</ele>
        <time>2018-06-19T13:29:39Z</time>
      </trkpt>
      <trkpt lat="46.47412" lon="-1.73442">
        <ele>20.2</ele>
        <time>2018-06-19T13:29:48Z</time>
      </trkpt>
      <trkpt lat="46.47411" lon="-1.73456">
        <ele>20.1</ele>
        <time>2018-06-19T13:29:55Z</time>
      </trkpt>
      <trkpt lat="46.4741" lon="-1.73469">
        <ele>20</ele>
        <time>2018-06-19T13:30:04Z</time>
      </trkpt>
      <trkpt lat="46.4741" lon="-1.73482">
        <ele>19.7</ele>
        <time>2018-06-19T13:30:14Z</time>
      </trkpt>
      <trkpt lat="46.47409" lon="-1.73496">
        <ele>19.4</ele>
        <time>2018-06-19T13:30:24Z</time>
      </trkpt>
      <trkpt lat="46.47403" lon="-1.73506">
        <ele>19.4</ele>
        <time>2018-06-19T13:30:31Z</time>
      </trkpt>
      <trkpt lat="46.47397" lon="-1.73516">
        <ele>19.3</ele>
        <time>2018-06-19T13:30:40Z</time>
      </trkpt>
      <trkpt lat="46.47391" lon="-1.73527">
        <ele>19</ele>
        <time>2018-06-19T13:30:49Z</time>
      </trkpt>
      <trkpt lat="46.47384" lon="-1.73534">
        <ele>19.1</ele>
        <time>2018-06-19T13:30:58Z</time>
      </trkpt>
      <trkpt lat="46.47374" lon="-1.73539">
        <ele>19.3</ele>
        <time>2018-06-19T13:31:09Z</time>
      </trkpt>
      <trkpt lat="46.47368" lon="-1.73548">
        <ele>19.2</ele>
        <time>2018-06-19T13:31:16Z</time>
      </trkpt>
      <trkpt lat="46.47362" lon="-1.73561">
        <ele>19</ele>
        <time>2018-06-19T13:31:24Z</time>
      </trkpt>
      <trkpt lat="46.47353" lon="-1.73566">
        <ele>19</ele>
        <time>2018-06-19T13:31:33Z</time>
      </trkpt>
      <trkpt lat="46.47346" lon="-1.73578">
        <ele>19</ele>
        <time>2018-06-19T13:31:44Z</time>
      </trkpt>
      <trkpt lat="46.47339" lon="-1.73586">
        <ele>18.9</ele>
        <time>2018-06-19T13:31:53Z</time>
      </trkpt>
      <trkpt lat="46.47332" lon="-1.73597">
        <ele>18.5</ele>
        <time>2018-06-19T13:32:02Z</time>
      </trkpt>
      <trkpt lat="46.47323" lon="-1.73602">
        <ele>18.3</ele>
        <time>2018-06-19T13:32:13Z</time>
      </trkpt>
      <trkpt lat="46.47315" lon="-1.7361">
        <ele>18</ele>
        <time>2018-06-19T13:32:19Z</time>
      </trkpt>
      <trkpt lat="46.47308" lon="-1.73621">
        <ele>18</ele>
        <time>2018-06-19T13:32:27Z</time>
      </trkpt>
      <trkpt lat="46.47301" lon="-1.7363">
        <ele>17.9</ele>
        <time>2018-06-19T13:32:38Z</time>
      </trkpt>
      <trkpt lat="46.47295" lon="-1.73641">
        <ele>17.6</ele>
        <time>2018-06-19T13:32:48Z</time>
      </trkpt>
      <trkpt lat="46.47289" lon="-1.73651">
        <ele>17.2</ele>
        <time>2018-06-19T13:32:54Z</time>
      </trkpt>
      <trkpt lat="46.47284" lon="-1.73663">
        <ele>17</ele>
        <time>2018-06-19T13:33:02Z</time>
      </trkpt>
      <trkpt lat="46.47275" lon="-1.7367">
        <ele>16.8</ele>
        <time>2018-06-19T13:33:09Z</time>
      </trkpt>
      <trkpt lat="46.47268" lon="-1.73677">
        <ele>16.3</ele>
        <time>2018-06-19T13:33:19Z</time>
      </trkpt>
      <trkpt lat="46.47263" lon="-1.73688">
        <ele>15.7</ele>
        <time>2018-06-19T13:33:25Z</time>
      </trkpt>
      <trkpt lat="46.47256" lon="-1.73698">
        <ele>15.2</ele>
        <time>2018-06-19T13:33:35Z</time>
      </trkpt>
      <trkpt lat="46.47249" lon="-1.73707">
        <ele>15</ele>
        <time>2018-06-19T13:33:44Z</time>
      </trkpt>
      <trkpt lat="46.4724" lon="-1.73711">
        <ele>14.8</ele>
        <time>2018-06-19T13:33:51Z</time>
      </trkpt>
      <trkpt lat="46.47231" lon="-1.73716">
        <ele>14.5</ele>
        <time>2018-06-19T13:34:01Z</time>
      </trkpt>
      <trkpt lat="46.47228" lon="-1.73719">
        <ele>14.3</ele>
        <time>2018-06-19T13:34:26Z</time>
      </trkpt>
      <trkpt lat="46.47228" lon="-1.73721">
        <ele>14.3</ele>
        <time>2018-06-19T13:34:46Z</time>
      </trkpt>
      <trkpt lat="46.47226" lon="-1.73707">
        <ele>14.6</ele>
        <time>2018-06-19T13:39:54Z</time>
      </trkpt>
      <trkpt lat="46.47221" lon="-1.73695">
        <ele>14.9</ele>
        <time>2018-06-19T13:40:07Z</time>
      </trkpt>
      <trkpt lat="46.47213" lon="-1.73689">
        <ele>14.7</ele>
        <time>2018-06-19T13:40:15Z</time>
      </trkpt>
      <trkpt lat="46.47213" lon="-1.73675">
        <ele>14.9</ele>
        <time>2018-06-19T13:40:24Z</time>
      </trkpt>
      <trkpt lat="46.47207" lon="-1.73666">
        <ele>15</ele>
        <time>2018-06-19T13:40:32Z</time>
      </trkpt>
      <trkpt lat="46.472" lon="-1.73657">
        <ele>15.4</ele>
        <time>2018-06-19T13:40:41Z</time>
      </trkpt>
      <trkpt lat="46.47193" lon="-1.73647">
        <ele>15.7</ele>
        <time>2018-06-19T13:40:50Z</time>
      </trkpt>
      <trkpt lat="46.47186" lon="-1.73636">
        <ele>15.7</ele>
        <time>2018-06-19T13:40:58Z</time>
      </trkpt>
      <trkpt lat="46.47184" lon="-1.73623">
        <ele>15.8</ele>
        <time>2018-06-19T13:41:07Z</time>
      </trkpt>
      <trkpt lat="46.4718" lon="-1.73611">
        <ele>16</ele>
        <time>2018-06-19T13:41:16Z</time>
      </trkpt>
      <trkpt lat="46.47176" lon="-1.73599">
        <ele>16.2</ele>
        <time>2018-06-19T13:41:27Z</time>
      </trkpt>
      <trkpt lat="46.47171" lon="-1.73588">
        <ele>16.1</ele>
        <time>2018-06-19T13:41:34Z</time>
      </trkpt>
      <trkpt lat="46.47166" lon="-1.73576">
        <ele>16.3</ele>
        <time>2018-06-19T13:41:42Z</time>
      </trkpt>
      <trkpt lat="46.47163" lon="-1.73564">
        <ele>16.6</ele>
        <time>2018-06-19T13:41:51Z</time>
      </trkpt>
      <trkpt lat="46.4716" lon="-1.73551">
        <ele>16.8</ele>
        <time>2018-06-19T13:41:58Z</time>
      </trkpt>
      <trkpt lat="46.47156" lon="-1.73539">
        <ele>16.6</ele>
        <time>2018-06-19T13:42:07Z</time>
      </trkpt>
      <trkpt lat="46.4715" lon="-1.73527">
        <ele>16.4</ele>
        <time>2018-06-19T13:42:16Z</time>
      </trkpt>
      <trkpt lat="46.47148" lon="-1.73514">
        <ele>16.8</ele>
        <time>2018-06-19T13:42:28Z</time>
      </trkpt>
      <trkpt lat="46.47146" lon="-1.73501">
        <ele>17.2</ele>
        <time>2018-06-19T13:42:36Z</time>
      </trkpt>
      <trkpt lat="46.47142" lon="-1.73489">
        <ele>17.1</ele>
        <time>2018-06-19T13:42:43Z</time>
      </trkpt>
      <trkpt lat="46.47139" lon="-1.73475">
        <ele>17</ele>
        <time>2018-06-19T13:42:53Z</time>
      </trkpt>
      <trkpt lat="46.47134" lon="-1.73463">
        <ele>17.1</ele>
        <time>2018-06-19T13:43:02Z</time>
      </trkpt>
      <trkpt lat="46.47134" lon="-1.73476">
        <ele>16.8</ele>
        <time>2018-06-19T13:43:31Z</time>
      </trkpt>
      <trkpt lat="46.47126" lon="-1.73483">
        <ele>16.3</ele>
        <time>2018-06-19T13:43:42Z</time>
      </trkpt>
      <trkpt lat="46.47118" lon="-1.7349">
        <ele>15.8</ele>
        <time>2018-06-19T13:43:53Z</time>
      </trkpt>
      <trkpt lat="46.47111" lon="-1.73498">
        <ele>15</ele>
        <time>2018-06-19T13:44:03Z</time>
      </trkpt>
      <trkpt lat="46.47102" lon="-1.73503">
        <ele>14.7</ele>
        <time>2018-06-19T13:44:12Z</time>
      </trkpt>
      <trkpt lat="46.47094" lon="-1.73511">
        <ele>14.4</ele>
        <time>2018-06-19T13:44:18Z</time>
      </trkpt>
      <trkpt lat="46.47084" lon="-1.73514">
        <ele>14</ele>
        <time>2018-06-19T13:44:27Z</time>
      </trkpt>
      <trkpt lat="46.47074" lon="-1.7352">
        <ele>13.7</ele>
        <time>2018-06-19T13:44:35Z</time>
      </trkpt>
      <trkpt lat="46.47065" lon="-1.73526">
        <ele>13.4</ele>
        <time>2018-06-19T13:44:44Z</time>
      </trkpt>
      <trkpt lat="46.47059" lon="-1.73536">
        <ele>13.1</ele>
        <time>2018-06-19T13:44:52Z</time>
      </trkpt>
      <trkpt lat="46.4705" lon="-1.7354">
        <ele>12.8</ele>
        <time>2018-06-19T13:45:00Z</time>
      </trkpt>
      <trkpt lat="46.4704" lon="-1.7354">
        <ele>12.4</ele>
        <time>2018-06-19T13:45:13Z</time>
      </trkpt>
      <trkpt lat="46.47031" lon="-1.73545">
        <ele>12.1</ele>
        <time>2018-06-19T13:45:21Z</time>
      </trkpt>
      <trkpt lat="46.47022" lon="-1.73552">
        <ele>11.4</ele>
        <time>2018-06-19T13:45:30Z</time>
      </trkpt>
      <trkpt lat="46.47014" lon="-1.73558">
        <ele>10.6</ele>
        <time>2018-06-19T13:45:38Z</time>
      </trkpt>
      <trkpt lat="46.47006" lon="-1.73554">
        <ele>9.6</ele>
        <time>2018-06-19T13:45:46Z</time>
      </trkpt>
      <trkpt lat="46.46996" lon="-1.73551">
        <ele>9</ele>
        <time>2018-06-19T13:45:56Z</time>
      </trkpt>
      <trkpt lat="46.46986" lon="-1.73549">
        <ele>8.6</ele>
        <time>2018-06-19T13:46:04Z</time>
      </trkpt>
      <trkpt lat="46.46976" lon="-1.73547">
        <ele>8.2</ele>
        <time>2018-06-19T13:46:14Z</time>
      </trkpt>
      <trkpt lat="46.46966" lon="-1.73541">
        <ele>7.8</ele>
        <time>2018-06-19T13:46:25Z</time>
      </trkpt>
      <trkpt lat="46.46956" lon="-1.73538">
        <ele>7.6</ele>
        <time>2018-06-19T13:46:35Z</time>
      </trkpt>
      <trkpt lat="46.46947" lon="-1.73534">
        <ele>7.6</ele>
        <time>2018-06-19T13:46:45Z</time>
      </trkpt>
      <trkpt lat="46.46936" lon="-1.73535">
        <ele>8</ele>
        <time>2018-06-19T13:46:54Z</time>
      </trkpt>
      <trkpt lat="46.46928" lon="-1.73541">
        <ele>8</ele>
        <time>2018-06-19T13:47:04Z</time>
      </trkpt>
      <trkpt lat="46.46918" lon="-1.73542">
        <ele>8.4</ele>
        <time>2018-06-19T13:47:16Z</time>
      </trkpt>
      <trkpt lat="46.46909" lon="-1.73546">
        <ele>8.2</ele>
        <time>2018-06-19T13:47:25Z</time>
      </trkpt>
      <trkpt lat="46.469" lon="-1.73547">
        <ele>8.3</ele>
        <time>2018-06-19T13:47:32Z</time>
      </trkpt>
      <trkpt lat="46.4689" lon="-1.73546">
        <ele>8.7</ele>
        <time>2018-06-19T13:47:39Z</time>
      </trkpt>
      <trkpt lat="46.46881" lon="-1.73544">
        <ele>9.5</ele>
        <time>2018-06-19T13:47:48Z</time>
      </trkpt>
      <trkpt lat="46.46872" lon="-1.7354">
        <ele>10.7</ele>
        <time>2018-06-19T13:48:09Z</time>
      </trkpt>
      <trkpt lat="46.46864" lon="-1.73543">
        <ele>11.1</ele>
        <time>2018-06-19T13:48:19Z</time>
      </trkpt>
      <trkpt lat="46.46789" lon="-1.73689">
        <ele>6.1</ele>
      </trkpt>
      <trkpt lat="46.46757" lon="-1.73686">
        <ele>9</ele>
      </trkpt>
      <trkpt lat="46.46735" lon="-1.73662">
        <ele>8.3</ele>
      </trkpt>
      <trkpt lat="46.46668" lon="-1.73536">
        <ele>11.8</ele>
      </trkpt>
      <trkpt lat="46.46635" lon="-1.73393">
        <ele>11.5</ele>
      </trkpt>
      <trkpt lat="46.46631" lon="-1.73395">
        <ele>9.9</ele>
      </trkpt>
      <trkpt lat="46.4658" lon="-1.7321">
        <ele>11.9</ele>
      </trkpt>
      <trkpt lat="46.46576" lon="-1.73202">
        <ele>12</ele>
      </trkpt>
      <trkpt lat="46.46514" lon="-1.73172">
        <ele>10.7</ele>
      </trkpt>
      <trkpt lat="46.46447" lon="-1.73202">
        <ele>8.3</ele>
      </trkpt>
      <trkpt lat="46.46432" lon="-1.73209">
        <ele>6.8</ele>
      </trkpt>
      <trkpt lat="46.46435" lon="-1.73181">
        <ele>9.1</ele>
      </trkpt>
      <trkpt lat="46.46406" lon="-1.73174">
        <ele>8.5</ele>
      </trkpt>
      <trkpt lat="46.46445" lon="-1.73099">
        <ele>12</ele>
      </trkpt>
      <trkpt lat="46.46425" lon="-1.73065">
        <ele>12.7</ele>
      </trkpt>
      <trkpt lat="46.46373" lon="-1.72817">
        <ele>18.2</ele>
      </trkpt>
      <trkpt lat="46.46372" lon="-1.72747">
        <ele>21</ele>
      </trkpt>
      <trkpt lat="46.4638" lon="-1.72626">
        <ele>22.3</ele>
      </trkpt>
      <trkpt lat="46.46356" lon="-1.72351">
        <ele>23.2</ele>
      </trkpt>
      <trkpt lat="46.46352" lon="-1.72352">
        <ele>23.3</ele>
      </trkpt>
      <trkpt lat="46.46353" lon="-1.72352">
        <ele>23.3</ele>
        <time>2018-06-19T14:09:19Z</time>
      </trkpt>
      <trkpt lat="46.46345" lon="-1.72358">
        <ele>23.6</ele>
        <time>2018-06-19T14:09:36Z</time>
      </trkpt>
      <trkpt lat="46.46338" lon="-1.72366">
        <ele>23.9</ele>
        <time>2018-06-19T14:09:45Z</time>
      </trkpt>
      <trkpt lat="46.46329" lon="-1.7237">
        <ele>24</ele>
        <time>2018-06-19T14:09:54Z</time>
      </trkpt>
      <trkpt lat="46.4632" lon="-1.72373">
        <ele>24</ele>
        <time>2018-06-19T14:10:04Z</time>
      </trkpt>
      <trkpt lat="46.46312" lon="-1.72386">
        <ele>24</ele>
        <time>2018-06-19T14:10:13Z</time>
      </trkpt>
      <trkpt lat="46.46307" lon="-1.72397">
        <ele>24</ele>
        <time>2018-06-19T14:10:19Z</time>
      </trkpt>
      <trkpt lat="46.463" lon="-1.72405">
        <ele>24.1</ele>
        <time>2018-06-19T14:10:28Z</time>
      </trkpt>
      <trkpt lat="46.46293" lon="-1.72413">
        <ele>24.1</ele>
        <time>2018-06-19T14:10:39Z</time>
      </trkpt>
      <trkpt lat="46.46285" lon="-1.72419">
        <ele>24</ele>
        <time>2018-06-19T14:10:53Z</time>
      </trkpt>
      <trkpt lat="46.46275" lon="-1.72424">
        <ele>24.3</ele>
        <time>2018-06-19T14:11:02Z</time>
      </trkpt>
      <trkpt lat="46.46268" lon="-1.72435">
        <ele>24.8</ele>
        <time>2018-06-19T14:11:13Z</time>
      </trkpt>
      <trkpt lat="46.46262" lon="-1.72445">
        <ele>25.2</ele>
        <time>2018-06-19T14:11:21Z</time>
      </trkpt>
      <trkpt lat="46.46254" lon="-1.72451">
        <ele>25.4</ele>
        <time>2018-06-19T14:11:32Z</time>
      </trkpt>
      <trkpt lat="46.46245" lon="-1.72455">
        <ele>25</ele>
        <time>2018-06-19T14:11:42Z</time>
      </trkpt>
      <trkpt lat="46.46236" lon="-1.72456">
        <ele>24.6</ele>
        <time>2018-06-19T14:11:53Z</time>
      </trkpt>
      <trkpt lat="46.46226" lon="-1.72455">
        <ele>24.2</ele>
        <time>2018-06-19T14:12:03Z</time>
      </trkpt>
      <trkpt lat="46.46217" lon="-1.72458">
        <ele>23.5</ele>
        <time>2018-06-19T14:12:13Z</time>
      </trkpt>
      <trkpt lat="46.46211" lon="-1.72468">
        <ele>22.8</ele>
        <time>2018-06-19T14:12:27Z</time>
      </trkpt>
      <trkpt lat="46.46201" lon="-1.72472">
        <ele>21.8</ele>
        <time>2018-06-19T14:12:35Z</time>
      </trkpt>
      <trkpt lat="46.46191" lon="-1.72476">
        <ele>20.9</ele>
        <time>2018-06-19T14:12:47Z</time>
      </trkpt>
      <trkpt lat="46.46183" lon="-1.72482">
        <ele>20.6</ele>
        <time>2018-06-19T14:12:55Z</time>
      </trkpt>
      <trkpt lat="46.46175" lon="-1.72489">
        <ele>20.3</ele>
        <time>2018-06-19T14:13:04Z</time>
      </trkpt>
      <trkpt lat="46.46168" lon="-1.72498">
        <ele>20</ele>
        <time>2018-06-19T14:13:14Z</time>
      </trkpt>
      <trkpt lat="46.46162" lon="-1.72509">
        <ele>19.5</ele>
        <time>2018-06-19T14:13:23Z</time>
      </trkpt>
      <trkpt lat="46.46153" lon="-1.72508">
        <ele>19.2</ele>
        <time>2018-06-19T14:13:32Z</time>
      </trkpt>
      <trkpt lat="46.46144" lon="-1.72504">
        <ele>19</ele>
        <time>2018-06-19T14:13:40Z</time>
      </trkpt>
      <trkpt lat="46.46136" lon="-1.72499">
        <ele>19</ele>
        <time>2018-06-19T14:13:49Z</time>
      </trkpt>
      <trkpt lat="46.46125" lon="-1.72498">
        <ele>19</ele>
        <time>2018-06-19T14:13:59Z</time>
      </trkpt>
      <trkpt lat="46.4612" lon="-1.7251">
        <ele>18.9</ele>
        <time>2018-06-19T14:14:08Z</time>
      </trkpt>
      <trkpt lat="46.46117" lon="-1.72524">
        <ele>18.8</ele>
        <time>2018-06-19T14:14:17Z</time>
      </trkpt>
      <trkpt lat="46.46114" lon="-1.72537">
        <ele>18.1</ele>
        <time>2018-06-19T14:14:27Z</time>
      </trkpt>
      <trkpt lat="46.46109" lon="-1.7255">
        <ele>16.6</ele>
        <time>2018-06-19T14:14:36Z</time>
      </trkpt>
      <trkpt lat="46.4611" lon="-1.72563">
        <ele>15.7</ele>
        <time>2018-06-19T14:14:47Z</time>
      </trkpt>
      <trkpt lat="46.46109" lon="-1.72577">
        <ele>15.1</ele>
        <time>2018-06-19T14:14:57Z</time>
      </trkpt>
      <trkpt lat="46.46109" lon="-1.7259">
        <ele>14.4</ele>
        <time>2018-06-19T14:15:09Z</time>
      </trkpt>
      <trkpt lat="46.461" lon="-1.72595">
        <ele>12.2</ele>
        <time>2018-06-19T14:15:24Z</time>
      </trkpt>
      <trkpt lat="46.46095" lon="-1.72584">
        <ele>13.1</ele>
        <time>2018-06-19T14:15:33Z</time>
      </trkpt>
      <trkpt lat="46.46088" lon="-1.72575">
        <ele>13.3</ele>
        <time>2018-06-19T14:15:42Z</time>
      </trkpt>
      <trkpt lat="46.46083" lon="-1.72564">
        <ele>14</ele>
        <time>2018-06-19T14:15:52Z</time>
      </trkpt>
      <trkpt lat="46.46078" lon="-1.72553">
        <ele>14.7</ele>
        <time>2018-06-19T14:16:02Z</time>
      </trkpt>
      <trkpt lat="46.4607" lon="-1.72543">
        <ele>14.9</ele>
        <time>2018-06-19T14:16:12Z</time>
      </trkpt>
      <trkpt lat="46.46064" lon="-1.72532">
        <ele>15.8</ele>
        <time>2018-06-19T14:16:22Z</time>
      </trkpt>
      <trkpt lat="46.46056" lon="-1.72524">
        <ele>16.2</ele>
        <time>2018-06-19T14:16:31Z</time>
      </trkpt>
      <trkpt lat="46.46047" lon="-1.72518">
        <ele>15.9</ele>
        <time>2018-06-19T14:16:40Z</time>
      </trkpt>
      <trkpt lat="46.46038" lon="-1.72512">
        <ele>15.7</ele>
        <time>2018-06-19T14:16:50Z</time>
      </trkpt>
      <trkpt lat="46.4603" lon="-1.72509">
        <ele>15.5</ele>
        <time>2018-06-19T14:17:00Z</time>
      </trkpt>
      <trkpt lat="46.46021" lon="-1.72503">
        <ele>15.2</ele>
        <time>2018-06-19T14:17:11Z</time>
      </trkpt>
      <trkpt lat="46.46011" lon="-1.72502">
        <ele>14.5</ele>
        <time>2018-06-19T14:17:22Z</time>
      </trkpt>
      <trkpt lat="46.46002" lon="-1.72504">
        <ele>13.4</ele>
        <time>2018-06-19T14:17:32Z</time>
      </trkpt>
      <trkpt lat="46.45993" lon="-1.72501">
        <ele>13.6</ele>
        <time>2018-06-19T14:17:41Z</time>
      </trkpt>
      <trkpt lat="46.45984" lon="-1.72501">
        <ele>13.3</ele>
        <time>2018-06-19T14:17:51Z</time>
      </trkpt>
      <trkpt lat="46.45974" lon="-1.72502">
        <ele>12.9</ele>
        <time>2018-06-19T14:18:01Z</time>
      </trkpt>
      <trkpt lat="46.45965" lon="-1.72502">
        <ele>12.3</ele>
        <time>2018-06-19T14:18:10Z</time>
      </trkpt>
      <trkpt lat="46.45955" lon="-1.72501">
        <ele>11.7</ele>
        <time>2018-06-19T14:18:20Z</time>
      </trkpt>
      <trkpt lat="46.45947" lon="-1.72495">
        <ele>11.4</ele>
        <time>2018-06-19T14:18:25Z</time>
      </trkpt>
      <trkpt lat="46.45938" lon="-1.7249">
        <ele>10.7</ele>
        <time>2018-06-19T14:18:33Z</time>
      </trkpt>
      <trkpt lat="46.45932" lon="-1.72479">
        <ele>11</ele>
        <time>2018-06-19T14:18:40Z</time>
      </trkpt>
      <trkpt lat="46.45926" lon="-1.72469">
        <ele>11.4</ele>
        <time>2018-06-19T14:18:48Z</time>
      </trkpt>
      <trkpt lat="46.4592" lon="-1.72458">
        <ele>11.2</ele>
        <time>2018-06-19T14:18:55Z</time>
      </trkpt>
      <trkpt lat="46.45914" lon="-1.72448">
        <ele>10.4</ele>
        <time>2018-06-19T14:19:02Z</time>
      </trkpt>
      <trkpt lat="46.45909" lon="-1.72436">
        <ele>9.8</ele>
        <time>2018-06-19T14:19:08Z</time>
      </trkpt>
      <trkpt lat="46.45904" lon="-1.72425">
        <ele>9.6</ele>
        <time>2018-06-19T14:19:15Z</time>
      </trkpt>
      <trkpt lat="46.45902" lon="-1.72422">
        <ele>9.4</ele>
        <time>2018-06-19T14:19:32Z</time>
      </trkpt>
      <trkpt lat="46.45899" lon="-1.72408">
        <ele>9.8</ele>
        <time>2018-06-19T14:20:11Z</time>
      </trkpt>
      <trkpt lat="46.45896" lon="-1.72396">
        <ele>10.2</ele>
        <time>2018-06-19T14:20:20Z</time>
      </trkpt>
      <trkpt lat="46.45887" lon="-1.72397">
        <ele>9</ele>
        <time>2018-06-19T14:20:30Z</time>
      </trkpt>
      <trkpt lat="46.45885" lon="-1.72396">
        <ele>8.6</ele>
        <time>2018-06-19T14:20:44Z</time>
      </trkpt>
      <trkpt lat="46.45894" lon="-1.72392">
        <ele>10.1</ele>
        <time>2018-06-19T14:21:07Z</time>
      </trkpt>
      <trkpt lat="46.45894" lon="-1.72378">
        <ele>10.5</ele>
        <time>2018-06-19T14:21:16Z</time>
      </trkpt>
      <trkpt lat="46.45887" lon="-1.72369">
        <ele>9.8</ele>
        <time>2018-06-19T14:21:24Z</time>
      </trkpt>
      <trkpt lat="46.45878" lon="-1.72363">
        <ele>9.1</ele>
        <time>2018-06-19T14:21:32Z</time>
      </trkpt>
      <trkpt lat="46.45874" lon="-1.7235">
        <ele>9.5</ele>
        <time>2018-06-19T14:21:40Z</time>
      </trkpt>
      <trkpt lat="46.45871" lon="-1.72336">
        <ele>10</ele>
        <time>2018-06-19T14:21:48Z</time>
      </trkpt>
      <trkpt lat="46.45868" lon="-1.72324">
        <ele>10</ele>
        <time>2018-06-19T14:21:55Z</time>
      </trkpt>
      <trkpt lat="46.45863" lon="-1.72313">
        <ele>9.9</ele>
        <time>2018-06-19T14:22:14Z</time>
      </trkpt>
      <trkpt lat="46.45853" lon="-1.72306">
        <ele>8.5</ele>
        <time>2018-06-19T14:22:21Z</time>
      </trkpt>
      <trkpt lat="46.45845" lon="-1.72298">
        <ele>7.8</ele>
        <time>2018-06-19T14:22:28Z</time>
      </trkpt>
      <trkpt lat="46.45837" lon="-1.7229">
        <ele>7.6</ele>
        <time>2018-06-19T14:22:35Z</time>
      </trkpt>
      <trkpt lat="46.45829" lon="-1.72283">
        <ele>7.4</ele>
        <time>2018-06-19T14:22:43Z</time>
      </trkpt>
      <trkpt lat="46.45823" lon="-1.72272">
        <ele>7.1</ele>
        <time>2018-06-19T14:22:51Z</time>
      </trkpt>
      <trkpt lat="46.45819" lon="-1.72258">
        <ele>6.9</ele>
        <time>2018-06-19T14:22:59Z</time>
      </trkpt>
      <trkpt lat="46.45815" lon="-1.72244">
        <ele>7.6</ele>
        <time>2018-06-19T14:23:08Z</time>
      </trkpt>
      <trkpt lat="46.45816" lon="-1.72229">
        <ele>9.7</ele>
        <time>2018-06-19T14:23:17Z</time>
      </trkpt>
      <trkpt lat="46.45813" lon="-1.72216">
        <ele>10.8</ele>
        <time>2018-06-19T14:23:27Z</time>
      </trkpt>
      <trkpt lat="46.45814" lon="-1.72202">
        <ele>11.3</ele>
        <time>2018-06-19T14:23:43Z</time>
      </trkpt>
      <trkpt lat="46.45809" lon="-1.72191">
        <ele>11.4</ele>
        <time>2018-06-19T14:23:52Z</time>
      </trkpt>
      <trkpt lat="46.45805" lon="-1.72178">
        <ele>11.4</ele>
        <time>2018-06-19T14:24:02Z</time>
      </trkpt>
      <trkpt lat="46.45806" lon="-1.72164">
        <ele>11.6</ele>
        <time>2018-06-19T14:24:12Z</time>
      </trkpt>
      <trkpt lat="46.45805" lon="-1.72158">
        <ele>10.3</ele>
        <time>2018-06-19T14:24:55Z</time>
      </trkpt>
      <trkpt lat="46.45805" lon="-1.72167">
        <ele>11.7</ele>
        <time>2018-06-19T14:28:08Z</time>
      </trkpt>
      <trkpt lat="46.45814" lon="-1.72166">
        <ele>12.5</ele>
        <time>2018-06-19T14:28:50Z</time>
      </trkpt>
      <trkpt lat="46.45823" lon="-1.72169">
        <ele>13.2</ele>
        <time>2018-06-19T14:29:04Z</time>
      </trkpt>
      <trkpt lat="46.45833" lon="-1.72169">
        <ele>13.9</ele>
        <time>2018-06-19T14:29:21Z</time>
      </trkpt>
      <trkpt lat="46.45842" lon="-1.72166">
        <ele>13.9</ele>
        <time>2018-06-19T14:29:35Z</time>
      </trkpt>
      <trkpt lat="46.45851" lon="-1.72162">
        <ele>12.5</ele>
        <time>2018-06-19T14:29:45Z</time>
      </trkpt>
      <trkpt lat="46.45859" lon="-1.72168">
        <ele>14.1</ele>
        <time>2018-06-19T14:29:53Z</time>
      </trkpt>
      <trkpt lat="46.45869" lon="-1.72164">
        <ele>13.4</ele>
        <time>2018-06-19T14:30:04Z</time>
      </trkpt>
      <trkpt lat="46.45876" lon="-1.72156">
        <ele>12.3</ele>
        <time>2018-06-19T14:30:14Z</time>
      </trkpt>
      <trkpt lat="46.45886" lon="-1.72154">
        <ele>13.3</ele>
        <time>2018-06-19T14:30:27Z</time>
      </trkpt>
      <trkpt lat="46.45895" lon="-1.72151">
        <ele>14</ele>
        <time>2018-06-19T14:30:33Z</time>
      </trkpt>
      <trkpt lat="46.45902" lon="-1.72142">
        <ele>14</ele>
        <time>2018-06-19T14:30:43Z</time>
      </trkpt>
      <trkpt lat="46.4591" lon="-1.72136">
        <ele>14.8</ele>
        <time>2018-06-19T14:30:52Z</time>
      </trkpt>
      <trkpt lat="46.45912" lon="-1.72122">
        <ele>14.3</ele>
        <time>2018-06-19T14:31:02Z</time>
      </trkpt>
      <trkpt lat="46.45918" lon="-1.72111">
        <ele>16.2</ele>
        <time>2018-06-19T14:31:10Z</time>
      </trkpt>
      <trkpt lat="46.45921" lon="-1.72097">
        <ele>16.2</ele>
        <time>2018-06-19T14:31:19Z</time>
      </trkpt>
      <trkpt lat="46.45924" lon="-1.72084">
        <ele>16.3</ele>
        <time>2018-06-19T14:31:29Z</time>
      </trkpt>
      <trkpt lat="46.45929" lon="-1.72073">
        <ele>17.1</ele>
        <time>2018-06-19T14:31:39Z</time>
      </trkpt>
      <trkpt lat="46.4593" lon="-1.72059">
        <ele>17.4</ele>
        <time>2018-06-19T14:31:48Z</time>
      </trkpt>
      <trkpt lat="46.45931" lon="-1.72045">
        <ele>15.5</ele>
        <time>2018-06-19T14:31:57Z</time>
      </trkpt>
      <trkpt lat="46.45931" lon="-1.72032">
        <ele>13</ele>
        <time>2018-06-19T14:32:07Z</time>
      </trkpt>
      <trkpt lat="46.45934" lon="-1.72018">
        <ele>13</ele>
        <time>2018-06-19T14:32:18Z</time>
      </trkpt>
      <trkpt lat="46.45934" lon="-1.72004">
        <ele>13.1</ele>
        <time>2018-06-19T14:32:28Z</time>
      </trkpt>
      <trkpt lat="46.45935" lon="-1.71991">
        <ele>13.6</ele>
        <time>2018-06-19T14:32:39Z</time>
      </trkpt>
      <trkpt lat="46.45937" lon="-1.71977">
        <ele>14.5</ele>
        <time>2018-06-19T14:32:49Z</time>
      </trkpt>
      <trkpt lat="46.45942" lon="-1.71966">
        <ele>15.4</ele>
        <time>2018-06-19T14:32:57Z</time>
      </trkpt>
      <trkpt lat="46.45948" lon="-1.71957">
        <ele>16.4</ele>
        <time>2018-06-19T14:33:06Z</time>
      </trkpt>
      <trkpt lat="46.45956" lon="-1.7195">
        <ele>17</ele>
        <time>2018-06-19T14:33:21Z</time>
      </trkpt>
      <trkpt lat="46.45967" lon="-1.71948">
        <ele>17.8</ele>
        <time>2018-06-19T14:33:34Z</time>
      </trkpt>
      <trkpt lat="46.45978" lon="-1.71944">
        <ele>18.6</ele>
        <time>2018-06-19T14:33:41Z</time>
      </trkpt>
      <trkpt lat="46.45985" lon="-1.71935">
        <ele>19.4</ele>
        <time>2018-06-19T14:33:53Z</time>
      </trkpt>
      <trkpt lat="46.45993" lon="-1.71924">
        <ele>19.9</ele>
        <time>2018-06-19T14:34:00Z</time>
      </trkpt>
      <trkpt lat="46.46001" lon="-1.71914">
        <ele>20</ele>
        <time>2018-06-19T14:34:12Z</time>
      </trkpt>
      <trkpt lat="46.46009" lon="-1.71905">
        <ele>20.2</ele>
        <time>2018-06-19T14:34:22Z</time>
      </trkpt>
      <trkpt lat="46.46017" lon="-1.71897">
        <ele>20.2</ele>
        <time>2018-06-19T14:34:26Z</time>
      </trkpt>
      <trkpt lat="46.46026" lon="-1.71894">
        <ele>20.2</ele>
        <time>2018-06-19T14:34:39Z</time>
      </trkpt>
      <trkpt lat="46.46035" lon="-1.71889">
        <ele>20.2</ele>
        <time>2018-06-19T14:34:43Z</time>
      </trkpt>
      <trkpt lat="46.46042" lon="-1.71875">
        <ele>20</ele>
        <time>2018-06-19T14:34:57Z</time>
      </trkpt>
      <trkpt lat="46.46046" lon="-1.71863">
        <ele>19.8</ele>
        <time>2018-06-19T14:35:05Z</time>
      </trkpt>
      <trkpt lat="46.46055" lon="-1.71857">
        <ele>19.8</ele>
        <time>2018-06-19T14:35:19Z</time>
      </trkpt>
      <trkpt lat="46.46062" lon="-1.71848">
        <ele>19.6</ele>
        <time>2018-06-19T14:35:26Z</time>
      </trkpt>
      <trkpt lat="46.46069" lon="-1.7184">
        <ele>19.6</ele>
        <time>2018-06-19T14:35:35Z</time>
      </trkpt>
      <trkpt lat="46.46078" lon="-1.71832">
        <ele>19.8</ele>
        <time>2018-06-19T14:35:44Z</time>
      </trkpt>
      <trkpt lat="46.46085" lon="-1.71824">
        <ele>20</ele>
        <time>2018-06-19T14:35:52Z</time>
      </trkpt>
      <trkpt lat="46.46094" lon="-1.71817">
        <ele>20.2</ele>
        <time>2018-06-19T14:36:00Z</time>
      </trkpt>
      <trkpt lat="46.46103" lon="-1.71811">
        <ele>20.1</ele>
        <time>2018-06-19T14:36:10Z</time>
      </trkpt>
      <trkpt lat="46.4611" lon="-1.71803">
        <ele>20.1</ele>
        <time>2018-06-19T14:36:19Z</time>
      </trkpt>
      <trkpt lat="46.46107" lon="-1.7179">
        <ele>20.5</ele>
        <time>2018-06-19T14:36:31Z</time>
      </trkpt>
      <trkpt lat="46.46102" lon="-1.71778">
        <ele>20.6</ele>
        <time>2018-06-19T14:36:39Z</time>
      </trkpt>
      <trkpt lat="46.46096" lon="-1.71769">
        <ele>20.3</ele>
        <time>2018-06-19T14:36:46Z</time>
      </trkpt>
      <trkpt lat="46.46089" lon="-1.71758">
        <ele>20.1</ele>
        <time>2018-06-19T14:36:55Z</time>
      </trkpt>
      <trkpt lat="46.46083" lon="-1.71748">
        <ele>20</ele>
        <time>2018-06-19T14:37:03Z</time>
      </trkpt>
      <trkpt lat="46.46077" lon="-1.71737">
        <ele>19.8</ele>
        <time>2018-06-19T14:37:14Z</time>
      </trkpt>
      <trkpt lat="46.4607" lon="-1.71728">
        <ele>19.5</ele>
        <time>2018-06-19T14:37:21Z</time>
      </trkpt>
      <trkpt lat="46.46065" lon="-1.71717">
        <ele>19.3</ele>
        <time>2018-06-19T14:37:31Z</time>
      </trkpt>
      <trkpt lat="46.46059" lon="-1.71707">
        <ele>19.1</ele>
        <time>2018-06-19T14:37:42Z</time>
      </trkpt>
      <trkpt lat="46.46054" lon="-1.71697">
        <ele>18.9</ele>
        <time>2018-06-19T14:37:50Z</time>
      </trkpt>
      <trkpt lat="46.46047" lon="-1.71687">
        <ele>18.5</ele>
        <time>2018-06-19T14:37:58Z</time>
      </trkpt>
      <trkpt lat="46.46041" lon="-1.71676">
        <ele>18.2</ele>
        <time>2018-06-19T14:38:07Z</time>
      </trkpt>
      <trkpt lat="46.46034" lon="-1.71666">
        <ele>18</ele>
        <time>2018-06-19T14:38:15Z</time>
      </trkpt>
      <trkpt lat="46.46026" lon="-1.71658">
        <ele>17.6</ele>
        <time>2018-06-19T14:38:23Z</time>
      </trkpt>
      <trkpt lat="46.46018" lon="-1.71649">
        <ele>17</ele>
        <time>2018-06-19T14:38:31Z</time>
      </trkpt>
      <trkpt lat="46.46011" lon="-1.71639">
        <ele>16.4</ele>
        <time>2018-06-19T14:38:40Z</time>
      </trkpt>
      <trkpt lat="46.46004" lon="-1.7163">
        <ele>16.1</ele>
        <time>2018-06-19T14:38:49Z</time>
      </trkpt>
      <trkpt lat="46.45996" lon="-1.71621">
        <ele>15.9</ele>
        <time>2018-06-19T14:38:59Z</time>
      </trkpt>
      <trkpt lat="46.45991" lon="-1.7161">
        <ele>15.7</ele>
        <time>2018-06-19T14:39:07Z</time>
      </trkpt>
      <trkpt lat="46.45985" lon="-1.716">
        <ele>15.5</ele>
        <time>2018-06-19T14:39:17Z</time>
      </trkpt>
      <trkpt lat="46.4598" lon="-1.71588">
        <ele>15.3</ele>
        <time>2018-06-19T14:39:26Z</time>
      </trkpt>
      <trkpt lat="46.45974" lon="-1.71584">
        <ele>15.1</ele>
        <time>2018-06-19T14:39:50Z</time>
      </trkpt>
    </trkseg>
  </trk>
</gpx>